Time;durP1;ratioP1;P1;durP2;ratioP2;P2;SDS_P1;SDS_P2;PMS_P1;PMS_P2;Temp;Humidity;BMP_temperature;BMP_pressure;BME280_temperature;BME280_humidity;BME280_pressure;Samples;Min_cycle;Max_cycle;Signal;HPM_P1;HPM_P2
2022/05/07 00:00:22;;;;;;;;;;;21.50;54.10;;;;;;5000495;28;19956;-56
2022/05/07 00:02:47;;;;;;;;;;;21.50;54.00;;;;;;5001558;28;19918;-52
2022/05/07 00:05:13;;;;;;;;;;;21.50;54.00;;;;;;5002433;28;19922;-54
2022/05/07 00:07:38;;;;;;;;;;;21.50;54.10;;;;;;5001814;28;20417;-56
2022/05/07 00:10:04;;;;;;;;;;;21.50;54.00;;;;;;5001404;28;19918;-54
2022/05/07 00:12:30;;;;;;;;;;;21.50;54.00;;;;;;5017305;28;19972;-53
2022/05/07 00:14:55;;;;;;;;;;;21.50;54.00;;;;;;5002034;28;19925;-56
2022/05/07 00:20:05;;;;;;;;;;;21.50;54.10;;;;;;5001457;28;20398;-55
2022/05/07 00:22:31;;;;;;;;;;;21.50;54.10;;;;;;5018284;28;20615;-53
2022/05/07 00:24:56;;;;;;;;;;;21.50;54.00;;;;;;5005588;28;19929;-52
2022/05/07 00:27:22;;;;;;;;;;;21.50;54.10;;;;;;5005122;28;20371;-56
2022/05/07 00:29:48;;;;;;;;;;;21.50;54.10;;;;;;5004615;28;19921;-57
2022/05/07 00:32:13;;;;;;;;;;;21.40;54.00;;;;;;5006613;28;20002;-56
2022/05/07 00:34:38;;;;;;;;;;;21.40;54.00;;;;;;5005345;28;20345;-57
2022/05/07 00:37:04;;;;;;;;;;;21.40;54.00;;;;;;5004470;28;19925;-59
2022/05/07 00:39:30;;;;;;;;;;;21.50;54.00;;;;;;5004004;28;19918;-56
2022/05/07 00:41:55;;;;;;;;;;;21.50;54.00;;;;;;5020080;28;19921;-56
2022/05/07 00:44:22;;;;;;;;;;;21.40;53.90;;;;;;5020353;28;19971;-54
2022/05/07 00:46:47;;;;;;;;;;;21.40;53.90;;;;;;5006002;28;19926;-54
2022/05/07 00:49:13;;;;;;;;;;;21.40;54.00;;;;;;5001449;28;19944;-54
2022/05/07 00:51:38;;;;;;;;;;;21.40;53.90;;;;;;5019740;28;19925;-56
2022/05/07 00:54:04;;;;;;;;;;;21.50;54.00;;;;;;5004592;28;19918;-55
2022/05/07 00:56:30;;;;;;;;;;;21.40;53.90;;;;;;5020053;28;19920;-54
2022/05/07 00:58:56;;;;;;;;;;;21.50;54.00;;;;;;5003918;28;19975;-55
2022/05/07 01:01:22;;;;;;;;;;;21.40;53.80;;;;;;5005354;28;19922;-53
2022/05/07 01:03:48;;;;;;;;;;;21.50;53.90;;;;;;5005621;28;19914;-57
2022/05/07 01:06:14;;;;;;;;;;;21.50;54.00;;;;;;5020287;28;20438;-57
2022/05/07 01:08:39;;;;;;;;;;;21.50;54.00;;;;;;5018575;28;20366;-55
2022/05/07 01:11:05;;;;;;;;;;;21.40;53.80;;;;;;5004576;28;19924;-56
2022/05/07 01:13:30;;;;;;;;;;;21.40;53.90;;;;;;5005467;28;19914;-56
2022/05/07 01:15:56;;;;;;;;;;;21.40;53.80;;;;;;5005323;28;19921;-58
2022/05/07 01:18:22;;;;;;;;;;;21.40;53.80;;;;;;5004581;28;20016;-58
2022/05/07 01:20:47;;;;;;;;;;;21.40;53.80;;;;;;5004918;28;20774;-56
2022/05/07 01:23:13;;;;;;;;;;;21.40;53.80;;;;;;5004944;28;19932;-57
2022/05/07 01:25:38;;;;;;;;;;;21.40;53.80;;;;;;5004486;28;19925;-56
2022/05/07 01:28:04;;;;;;;;;;;21.40;53.80;;;;;;5005099;28;20546;-57
2022/05/07 01:30:29;;;;;;;;;;;21.40;53.80;;;;;;5017997;28;19967;-55
2022/05/07 01:32:55;;;;;;;;;;;21.40;53.80;;;;;;5004842;28;20298;-57
2022/05/07 01:35:20;;;;;;;;;;;21.40;53.80;;;;;;5004112;28;19925;-59
2022/05/07 01:37:45;;;;;;;;;;;21.40;53.80;;;;;;5003703;28;19919;-55
2022/05/07 01:40:11;;;;;;;;;;;21.40;53.80;;;;;;5003076;28;19913;-59
2022/05/07 01:42:37;;;;;;;;;;;21.40;53.80;;;;;;5004729;28;20315;-55
2022/05/07 01:45:03;;;;;;;;;;;21.40;53.80;;;;;;5019714;28;19983;-57
2022/05/07 01:50:12;;;;;;;;;;;21.30;53.80;;;;;;5003023;28;19999;-55
2022/05/07 01:52:38;;;;;;;;;;;21.40;53.80;;;;;;5004735;28;20362;-55
2022/05/07 01:55:03;;;;;;;;;;;21.30;53.80;;;;;;5004342;28;19917;-55
2022/05/07 01:57:29;;;;;;;;;;;21.40;53.80;;;;;;5005034;28;20016;-55
2022/05/07 01:59:54;;;;;;;;;;;21.40;53.80;;;;;;5003961;28;19918;-55
2022/05/07 02:02:20;;;;;;;;;;;21.40;53.80;;;;;;5020106;28;19968;-59
2022/05/07 02:04:45;;;;;;;;;;;21.30;53.70;;;;;;5004296;28;20134;-54
2022/05/07 02:07:11;;;;;;;;;;;21.30;53.70;;;;;;5004035;28;19982;-54
2022/05/07 02:09:36;;;;;;;;;;;21.40;53.80;;;;;;5001915;28;19929;-58
2022/05/07 02:12:02;;;;;;;;;;;21.30;53.70;;;;;;5004018;28;20411;-55
2022/05/07 02:14:29;;;;;;;;;;;21.30;53.70;;;;;;5003955;28;19914;-56
2022/05/07 02:16:54;;;;;;;;;;;21.40;53.70;;;;;;5003583;28;19921;-60
2022/05/07 02:19:20;;;;;;;;;;;21.30;53.60;;;;;;5003544;28;20438;-55
2022/05/07 02:21:45;;;;;;;;;;;21.30;53.60;;;;;;5003808;28;19921;-57
2022/05/07 02:24:11;;;;;;;;;;;21.30;53.60;;;;;;5003253;28;19921;-58
2022/05/07 02:26:36;;;;;;;;;;;21.30;53.60;;;;;;5002500;28;19924;-54
2022/05/07 02:29:01;;;;;;;;;;;21.30;53.70;;;;;;5002944;28;20695;-58
2022/05/07 02:31:27;;;;;;;;;;;21.30;53.70;;;;;;5003606;28;19921;-58
2022/05/07 02:33:52;;;;;;;;;;;21.30;53.60;;;;;;5003985;28;19918;-56
2022/05/07 02:36:18;;;;;;;;;;;21.30;53.60;;;;;;5004325;28;19922;-57
2022/05/07 02:38:43;;;;;;;;;;;21.30;53.70;;;;;;5002226;28;20870;-55
2022/05/07 02:43:53;;;;;;;;;;;21.30;53.60;;;;;;5006640;28;19986;-60
2022/05/07 02:46:18;;;;;;;;;;;21.30;53.60;;;;;;5008024;28;20020;-56
2022/05/07 02:48:45;;;;;;;;;;;21.30;53.60;;;;;;5004165;28;20401;-56
2022/05/07 02:51:11;;;;;;;;;;;21.20;53.60;;;;;;5003846;28;19944;-58
2022/05/07 02:53:36;;;;;;;;;;;21.30;54.30;;;;;;5003129;28;20379;-58
2022/05/07 02:56:02;;;;;;;;;;;21.30;53.70;;;;;;5003322;28;19920;-58
2022/05/07 02:58:27;;;;;;;;;;;21.30;53.60;;;;;;5001701;28;19917;-58
2022/05/07 03:00:53;;;;;;;;;;;21.20;53.70;;;;;;5003248;28;19929;-56
2022/05/07 03:03:18;;;;;;;;;;;21.20;53.70;;;;;;5004123;28;19918;-59
2022/05/07 03:05:44;;;;;;;;;;;21.20;53.70;;;;;;5003464;28;19924;-58
2022/05/07 03:08:09;;;;;;;;;;;21.20;53.70;;;;;;5002988;28;19967;-56
2022/05/07 03:10:35;;;;;;;;;;;21.20;53.70;;;;;;5001979;28;19936;-56
2022/05/07 03:13:00;;;;;;;;;;;21.20;53.70;;;;;;5003032;28;19913;-59
2022/05/07 03:15:26;;;;;;;;;;;21.20;53.60;;;;;;5003274;28;19917;-58
2022/05/07 03:17:51;;;;;;;;;;;21.20;53.60;;;;;;5018269;28;19917;-60
2022/05/07 03:20:17;;;;;;;;;;;21.20;53.60;;;;;;5002478;28;19917;-54
2022/05/07 03:22:43;;;;;;;;;;;21.20;53.60;;;;;;5002412;28;20467;-57
2022/05/07 03:25:09;;;;;;;;;;;21.20;53.60;;;;;;5003172;28;19921;-56
2022/05/07 03:27:34;;;;;;;;;;;21.20;53.60;;;;;;5003059;28;19913;-58
2022/05/07 03:30:00;;;;;;;;;;;21.20;53.70;;;;;;5016834;28;19925;-54
2022/05/07 03:32:25;;;;;;;;;;;21.20;53.70;;;;;;5003364;28;19917;-54
2022/05/07 03:34:51;;;;;;;;;;;21.20;53.70;;;;;;5003582;28;19944;-56
2022/05/07 03:37:16;;;;;;;;;;;21.10;53.70;;;;;;5001459;28;19917;-52
2022/05/07 03:39:42;;;;;;;;;;;21.20;53.70;;;;;;5002372;28;19925;-54
2022/05/07 03:42:07;;;;;;;;;;;21.20;53.70;;;;;;5001763;28;19913;-55
2022/05/07 03:44:33;;;;;;;;;;;21.10;53.70;;;;;;5017662;28;19988;-53
2022/05/07 03:46:58;;;;;;;;;;;21.20;53.70;;;;;;5017871;28;19921;-55
2022/05/07 03:49:23;;;;;;;;;;;21.20;53.70;;;;;;5001614;28;19921;-55
2022/05/07 03:54:33;;;;;;;;;;;21.10;53.70;;;;;;5002984;28;19920;-59
2022/05/07 03:56:58;;;;;;;;;;;21.20;53.70;;;;;;5002743;28;20318;-53
2022/05/07 03:59:24;;;;;;;;;;;21.10;53.70;;;;;;5020600;28;19921;-56
2022/05/07 04:01:49;;;;;;;;;;;21.10;53.70;;;;;;5006998;28;19921;-59
2022/05/07 04:04:15;;;;;;;;;;;21.10;53.70;;;;;;5006636;28;20489;-55
2022/05/07 04:06:40;;;;;;;;;;;21.10;53.70;;;;;;5006003;28;19918;-57
2022/05/07 04:09:06;;;;;;;;;;;21.10;53.70;;;;;;5005542;28;19917;-58
2022/05/07 04:11:31;;;;;;;;;;;21.10;53.70;;;;;;5006534;28;19918;-56
2022/05/07 04:13:56;;;;;;;;;;;21.10;53.70;;;;;;5006250;28;20366;-57
2022/05/07 04:16:22;;;;;;;;;;;21.10;53.70;;;;;;5021865;28;19913;-57
2022/05/07 04:18:47;;;;;;;;;;;21.10;53.70;;;;;;5005713;28;19917;-55
2022/05/07 04:21:13;;;;;;;;;;;21.10;53.70;;;;;;5005842;28;20289;-56
2022/05/07 04:23:38;;;;;;;;;;;21.10;53.70;;;;;;5006318;28;19932;-55
2022/05/07 04:26:04;;;;;;;;;;;21.10;53.60;;;;;;5005569;28;19968;-54
2022/05/07 04:28:29;;;;;;;;;;;21.10;53.50;;;;;;5005141;28;19919;-55
2022/05/07 04:30:55;;;;;;;;;;;21.20;53.60;;;;;;5006440;28;19918;-57
2022/05/07 04:33:21;;;;;;;;;;;21.20;53.70;;;;;;5021662;28;19928;-55
2022/05/07 04:35:48;;;;;;;;;;;21.20;54.00;;;;;;5005673;28;19917;-55
2022/05/07 04:38:14;;;;;;;;;;;21.20;54.10;;;;;;5005908;28;20545;-59
2022/05/07 04:40:39;;;;;;;;;;;21.20;53.90;;;;;;5005045;28;20001;-56
2022/05/07 04:43:05;;;;;;;;;;;21.20;53.90;;;;;;5006473;28;20403;-57
2022/05/07 04:45:30;;;;;;;;;;;21.20;54.10;;;;;;5021473;28;19981;-60
2022/05/07 04:47:55;;;;;;;;;;;21.20;54.50;;;;;;5005185;28;20346;-57
2022/05/07 04:50:21;;;;;;;;;;;21.20;54.10;;;;;;5019065;28;19920;-56
2022/05/07 04:52:46;;;;;;;;;;;21.20;53.90;;;;;;5004185;28;19924;-60
2022/05/07 04:55:12;;;;;;;;;;;21.30;54.20;;;;;;5005514;28;19921;-53
2022/05/07 04:57:37;;;;;;;;;;;21.30;54.20;;;;;;5005677;28;20375;-56
2022/05/07 05:00:06;;;;;;;;;;;21.30;54.70;;;;;;5004634;28;20393;-57
2022/05/07 05:02:32;;;;;;;;;;;21.20;54.50;;;;;;5020747;28;19954;-52
2022/05/07 05:04:57;;;;;;;;;;;21.20;54.50;;;;;;5004933;28;19924;-55
2022/05/07 05:07:22;;;;;;;;;;;21.20;54.90;;;;;;5005590;28;19914;-53
2022/05/07 05:09:48;;;;;;;;;;;21.30;55.00;;;;;;5002019;28;19917;-55
2022/05/07 05:12:13;;;;;;;;;;;21.20;55.00;;;;;;5005133;28;19920;-58
2022/05/07 05:17:23;;;;;;;;;;;21.30;55.00;;;;;;5004880;28;19919;-56
2022/05/07 05:19:49;;;;;;;;;;;21.30;54.90;;;;;;5004856;28;19918;-52
2022/05/07 05:22:14;;;;;;;;;;;21.30;55.10;;;;;;5004509;28;19929;-55
2022/05/07 05:24:39;;;;;;;;;;;21.30;55.10;;;;;;5004642;28;20463;-55
2022/05/07 05:27:05;;;;;;;;;;;21.30;55.10;;;;;;5004692;28;20012;-58
2022/05/07 05:29:32;;;;;;;;;;;21.30;55.10;;;;;;5003897;28;19913;-55
2022/05/07 05:31:58;;;;;;;;;;;21.30;55.10;;;;;;5004353;28;20000;-56
2022/05/07 05:34:23;;;;;;;;;;;21.30;55.10;;;;;;5005183;28;20497;-52
2022/05/07 05:36:49;;;;;;;;;;;21.30;55.10;;;;;;5005126;28;19924;-54
2022/05/07 05:39:14;;;;;;;;;;;21.30;55.00;;;;;;5003575;28;19922;-57
2022/05/07 05:41:42;;;;;;;;;;;21.30;55.10;;;;;;5004633;28;19917;-53
2022/05/07 05:44:07;;;;;;;;;;;21.30;55.10;;;;;;5004355;28;19920;-55
2022/05/07 05:46:33;;;;;;;;;;;21.30;55.10;;;;;;5003982;28;20126;-55
2022/05/07 05:48:58;;;;;;;;;;;21.30;55.10;;;;;;5002853;28;19964;-52
2022/05/07 05:51:23;;;;;;;;;;;21.30;55.10;;;;;;5004042;28;19989;-55
2022/05/07 05:53:49;;;;;;;;;;;21.30;55.20;;;;;;5004765;28;20442;-53
2022/05/07 05:56:14;;;;;;;;;;;21.30;55.10;;;;;;5002813;28;19921;-55
2022/05/07 05:58:40;;;;;;;;;;;21.30;55.20;;;;;;4991715;28;20023;-55
2022/05/07 06:01:08;;;;;;;;;;;21.30;55.10;;;;;;4992677;28;19953;-55
2022/05/07 06:03:34;;;;;;;;;;;21.30;55.10;;;;;;4984718;28;19920;-54
2022/05/07 06:05:59;;;;;;;;;;;21.30;55.10;;;;;;4984527;28;19918;-57
2022/05/07 06:08:25;;;;;;;;;;;21.30;55.20;;;;;;4983884;28;19949;-56
2022/05/07 06:10:52;;;;;;;;;;;21.30;55.20;;;;;;4984143;28;19944;-55
2022/05/07 06:13:18;;;;;;;;;;;21.30;55.30;;;;;;4984437;28;20344;-52
2022/05/07 06:15:45;;;;;;;;;;;21.30;55.30;;;;;;4992098;28;20004;-55
2022/05/07 06:18:11;;;;;;;;;;;21.30;55.20;;;;;;5004120;28;19924;-59
2022/05/07 06:20:36;;;;;;;;;;;21.30;55.30;;;;;;4984458;28;19917;-56
2022/05/07 06:23:02;;;;;;;;;;;21.30;55.50;;;;;;5000019;23;19925;-55
2022/05/07 06:28:11;;;;;;;;;;;21.30;55.50;;;;;;5004800;28;19924;-54
2022/05/07 06:30:37;;;;;;;;;;;21.30;55.40;;;;;;5003455;28;19914;-53
2022/05/07 06:33:02;;;;;;;;;;;21.30;55.60;;;;;;5005212;28;19920;-55
2022/05/07 06:35:28;;;;;;;;;;;21.30;55.60;;;;;;5006311;28;19920;-53
2022/05/07 06:37:53;;;;;;;;;;;21.30;55.70;;;;;;5005843;28;20419;-52
2022/05/07 06:40:19;;;;;;;;;;;21.30;55.90;;;;;;5006106;28;19957;-53
2022/05/07 06:42:45;;;;;;;;;;;21.30;56.10;;;;;;5006073;28;19945;-54
2022/05/07 06:45:11;;;;;;;;;;;21.30;56.40;;;;;;5004481;28;19952;-53
2022/05/07 06:47:36;;;;;;;;;;;21.30;56.60;;;;;;5003883;28;19913;-56
2022/05/07 06:50:02;;;;;;;;;;;21.30;56.60;;;;;;5002957;28;19924;-56
2022/05/07 06:52:28;;;;;;;;;;;21.30;56.60;;;;;;5004926;28;20412;-55
2022/05/07 06:54:54;;;;;;;;;;;21.30;56.60;;;;;;5004983;28;19961;-55
2022/05/07 06:57:19;;;;;;;;;;;21.40;56.60;;;;;;5005121;28;19948;-53
2022/05/07 06:59:45;;;;;;;;;;;21.30;56.60;;;;;;5004211;28;19918;-53
2022/05/07 07:02:10;;;;;;;;;;;21.30;56.50;;;;;;5002696;28;19967;-53
2022/05/07 07:04:36;;;;;;;;;;;21.30;56.50;;;;;;5004166;28;19964;-54
2022/05/07 07:07:01;;;;;;;;;;;21.30;56.60;;;;;;5004474;28;19971;-54
2022/05/07 07:09:27;;;;;;;;;;;21.30;56.80;;;;;;5003502;28;20343;-55
2022/05/07 07:11:52;;;;;;;;;;;21.20;56.70;;;;;;5004624;28;19914;-55
2022/05/07 07:14:17;;;;;;;;;;;21.30;56.70;;;;;;5003025;28;19964;-54
2022/05/07 07:16:43;;;;;;;;;;;21.30;56.60;;;;;;5004807;28;19928;-53
2022/05/07 07:19:09;;;;;;;;;;;21.20;56.60;;;;;;5003548;28;19921;-57
2022/05/07 07:21:35;;;;;;;;;;;21.20;56.40;;;;;;5004645;28;19924;-53
2022/05/07 07:24:00;;;;;;;;;;;21.20;56.50;;;;;;5004777;28;20107;-57
2022/05/07 07:26:26;;;;;;;;;;;21.20;56.40;;;;;;5004649;28;20462;-54
2022/05/07 07:28:52;;;;;;;;;;;21.20;56.20;;;;;;5005229;28;19917;-55
2022/05/07 07:31:17;;;;;;;;;;;21.20;56.10;;;;;;5005387;28;19914;-58
2022/05/07 07:33:43;;;;;;;;;;;21.10;56.10;;;;;;5008349;28;19922;-55
2022/05/07 07:36:09;;;;;;;;;;;21.20;56.10;;;;;;5009456;28;19914;-54
2022/05/07 07:38:35;;;;;;;;;;;21.20;56.20;;;;;;5007876;28;20422;-55
2022/05/07 07:41:01;;;;;;;;;;;21.20;56.30;;;;;;5006011;28;19918;-53
2022/05/07 07:43:26;;;;;;;;;;;21.20;56.20;;;;;;5008013;28;19920;-54
2022/05/07 07:48:36;;;;;;;;;;;21.20;56.50;;;;;;5007051;28;20329;-55
2022/05/07 07:51:01;;;;;;;;;;;21.20;55.90;;;;;;5007919;28;19913;-53
2022/05/07 07:53:27;;;;;;;;;;;21.20;56.30;;;;;;5007020;28;19928;-57
2022/05/07 07:55:52;;;;;;;;;;;21.20;55.00;;;;;;5005383;28;19913;-53
2022/05/07 07:58:18;;;;;;;;;;;21.20;54.80;;;;;;5007474;28;19913;-56
2022/05/07 08:00:46;;;;;;;;;;;21.20;54.50;;;;;;5006910;28;20527;-56
2022/05/07 08:03:16;;;;;;;;;;;21.20;54.50;;;;;;5007351;28;20425;-54
2022/05/07 08:05:42;;;;;;;;;;;21.20;53.90;;;;;;5007423;28;19921;-54
2022/05/07 08:13:37;;;;;;;;;;;21.10;53.70;;;;;;5007456;28;19921;-56
2022/05/07 08:16:03;;;;;;;;;;;21.20;53.50;;;;;;5007511;28;19914;-56
2022/05/07 08:18:29;;;;;;;;;;;21.20;53.50;;;;;;5007093;28;19913;-53
2022/05/07 08:20:55;;;;;;;;;;;21.10;53.30;;;;;;5007335;28;20414;-54
2022/05/07 08:23:21;;;;;;;;;;;21.10;53.40;;;;;;5007735;28;19928;-53
2022/05/07 08:25:47;;;;;;;;;;;21.10;53.30;;;;;;5006035;28;20379;-52
2022/05/07 08:28:12;;;;;;;;;;;21.10;53.20;;;;;;5006613;28;19913;-52
2022/05/07 08:30:39;;;;;;;;;;;21.10;53.10;;;;;;5007360;28;20131;-55
2022/05/07 08:33:04;;;;;;;;;;;21.10;53.00;;;;;;5007530;28;19936;-55
2022/05/07 08:35:30;;;;;;;;;;;21.10;53.00;;;;;;5007553;28;20382;-56
2022/05/07 08:37:55;;;;;;;;;;;21.10;52.90;;;;;;5006742;28;19918;-56
2022/05/07 08:40:22;;;;;;;;;;;21.10;52.70;;;;;;5006079;28;19917;-54
2022/05/07 08:42:47;;;;;;;;;;;21.10;52.60;;;;;;5006572;28;20303;-56
2022/05/07 08:45:13;;;;;;;;;;;21.10;52.50;;;;;;5006825;28;19940;-52
2022/05/07 08:47:39;;;;;;;;;;;21.10;52.50;;;;;;5005576;28;19920;-52
2022/05/07 08:50:06;;;;;;;;;;;21.10;52.40;;;;;;5005274;28;20464;-54
2022/05/07 08:52:32;;;;;;;;;;;21.10;52.40;;;;;;5006645;28;19995;-51
2022/05/07 08:54:58;;;;;;;;;;;21.10;52.30;;;;;;5004431;28;20430;-53
2022/05/07 08:57:24;;;;;;;;;;;21.10;52.60;;;;;;5006030;28;19920;-52
2022/05/07 08:59:50;;;;;;;;;;;21.10;52.40;;;;;;5002971;28;20383;-53
2022/05/07 09:02:16;;;;;;;;;;;21.10;52.30;;;;;;5005254;28;19917;-54
2022/05/07 09:04:52;;;;;;;;;;;21.10;52.30;;;;;;5005894;28;20348;-53
2022/05/07 09:07:17;;;;;;;;;;;21.20;52.50;;;;;;5004339;28;19971;-51
2022/05/07 09:09:46;;;;;;;;;;;21.20;52.50;;;;;;5005676;28;19943;-52
2022/05/07 09:12:20;;;;;;;;;;;21.20;52.40;;;;;;5005891;28;19971;-52
2022/05/07 09:14:46;;;;;;;;;;;21.30;52.50;;;;;;5006040;28;19948;-53
2022/05/07 09:17:11;;;;;;;;;;;21.30;52.30;;;;;;5005663;28;20268;-53
2022/05/07 09:19:37;;;;;;;;;;;21.30;52.50;;;;;;5005475;28;19914;-52
2022/05/07 09:22:05;;;;;;;;;;;21.30;52.30;;;;;;5005574;28;19928;-56
2022/05/07 09:24:30;;;;;;;;;;;21.30;52.40;;;;;;5005913;28;19917;-54
2022/05/07 09:26:56;;;;;;;;;;;21.30;52.40;;;;;;5005851;28;20123;-56
2022/05/07 09:29:25;;;;;;;;;;;21.30;52.40;;;;;;5004221;28;19914;-56
2022/05/07 09:31:51;;;;;;;;;;;21.30;52.50;;;;;;4992620;28;19995;-54
2022/05/07 09:37:01;;;;;;;;;;;21.20;52.50;;;;;;5005712;28;19964;-55
2022/05/07 09:39:30;;;;;;;;;;;21.30;52.70;;;;;;5005117;28;19921;-52
2022/05/07 09:41:58;;;;;;;;;;;21.20;52.60;;;;;;5005711;28;19921;-53
2022/05/07 09:44:26;;;;;;;;;;;21.20;52.70;;;;;;5005887;28;19964;-55
2022/05/07 09:46:52;;;;;;;;;;;21.20;52.70;;;;;;5001062;28;20000;-54
2022/05/07 09:49:17;;;;;;;;;;;21.20;52.80;;;;;;5003384;28;20279;-51
2022/05/07 09:51:42;;;;;;;;;;;21.20;52.80;;;;;;5003657;28;19914;-56
2022/05/07 09:59:36;;;;;;;;;;;21.20;52.90;;;;;;5004374;28;19968;-51
2022/05/07 10:02:08;;;;;;;;;;;21.20;53.00;;;;;;5005239;28;19917;-53
2022/05/07 10:04:52;;;;;;;;;;;21.20;53.00;;;;;;5020097;28;19914;-53
2022/05/07 10:07:39;;;;;;;;;;;21.20;53.00;;;;;;5005200;28;19917;-50
2022/05/07 10:10:14;;;;;;;;;;;21.20;53.10;;;;;;5002092;28;21521;-52
2022/05/07 10:12:42;;;;;;;;;;;21.20;53.20;;;;;;5004579;28;19913;-54
2022/05/07 10:15:09;;;;;;;;;;;21.20;53.10;;;;;;5003412;28;19932;-55
2022/05/07 10:17:35;;;;;;;;;;;21.30;53.20;;;;;;5004388;28;19924;-54
2022/05/07 10:20:04;;;;;;;;;;;21.30;53.10;;;;;;5003763;28;19996;-53
2022/05/07 10:22:29;;;;;;;;;;;21.30;53.10;;;;;;5004365;28;19921;-54
2022/05/07 10:25:04;;;;;;;;;;;21.30;53.10;;;;;;5004106;28;19924;-53
2022/05/07 10:27:31;;;;;;;;;;;21.30;53.10;;;;;;5004107;28;19952;-52
2022/05/07 10:30:06;;;;;;;;;;;21.30;53.10;;;;;;5003560;28;19920;-51
2022/05/07 10:32:51;;;;;;;;;;;21.30;53.10;;;;;;5003973;28;19920;-53
2022/05/07 10:35:36;;;;;;;;;;;21.30;53.20;;;;;;5003829;28;20430;-52
2022/05/07 10:38:26;;;;;;;;;;;21.30;53.20;;;;;;5004221;28;19913;-53
2022/05/07 10:41:01;;;;;;;;;;;21.30;53.20;;;;;;4976714;28;19914;-52
2022/05/07 10:43:29;;;;;;;;;;;21.30;53.30;;;;;;4992419;28;19921;-55
2022/05/07 10:45:56;;;;;;;;;;;21.30;53.30;;;;;;5004341;28;19921;-54
2022/05/07 10:48:22;;;;;;;;;;;21.30;53.30;;;;;;5004410;28;20004;-54
2022/05/07 10:50:51;;;;;;;;;;;21.30;53.40;;;;;;5002325;28;20373;-53
2022/05/07 10:53:16;;;;;;;;;;;21.20;53.50;;;;;;5003978;28;19914;-54
2022/05/07 10:55:41;;;;;;;;;;;21.20;53.40;;;;;;5003780;28;19936;-52
2022/05/07 10:58:07;;;;;;;;;;;21.20;53.50;;;;;;5003743;28;19913;-52
2022/05/07 11:00:34;;;;;;;;;;;21.20;53.50;;;;;;5002398;28;20366;-54
2022/05/07 11:03:00;;;;;;;;;;;21.20;53.50;;;;;;5004298;28;20302;-53
2022/05/07 11:05:32;;;;;;;;;;;21.20;53.50;;;;;;5003550;28;19921;-51
2022/05/07 11:08:00;;;;;;;;;;;21.20;53.70;;;;;;5001459;28;20147;-52
2022/05/07 11:10:26;;;;;;;;;;;21.20;53.60;;;;;;5001709;28;19918;-53
2022/05/07 11:12:51;;;;;;;;;;;21.20;53.60;;;;;;5004180;28;20319;-51
2022/05/07 11:15:24;;;;;;;;;;;21.20;53.60;;;;;;5003931;28;19913;-55
2022/05/07 11:17:50;;;;;;;;;;;21.20;53.60;;;;;;5003869;28;19920;-53
2022/05/07 11:20:15;;;;;;;;;;;21.20;53.60;;;;;;5002057;28;19913;-52
2022/05/07 11:22:41;;;;;;;;;;;21.20;53.60;;;;;;5002414;28;19922;-53
2022/05/07 11:25:07;;;;;;;;;;;21.20;53.60;;;;;;5003865;28;19914;-54
2022/05/07 11:27:33;;;;;;;;;;;21.20;53.60;;;;;;5004284;28;20337;-52
2022/05/07 11:29:59;;;;;;;;;;;21.20;53.60;;;;;;5002200;28;19913;-52
2022/05/07 11:32:34;;;;;;;;;;;21.20;53.70;;;;;;5004457;28;19993;-52
2022/05/07 11:34:59;;;;;;;;;;;21.20;53.70;;;;;;4996147;28;19942;-53
2022/05/07 11:37:25;;;;;;;;;;;21.20;53.70;;;;;;5003418;28;19921;-51
2022/05/07 11:39:54;;;;;;;;;;;21.20;53.70;;;;;;5001664;28;19918;-56
2022/05/07 11:42:29;;;;;;;;;;;21.20;53.70;;;;;;5001834;28;20345;-52
2022/05/07 11:47:49;;;;;;;;;;;21.20;53.70;;;;;;5003538;28;19983;-58
2022/05/07 11:50:17;;;;;;;;;;;21.20;53.70;;;;;;5002247;28;19945;-55
2022/05/07 11:52:42;;;;;;;;;;;21.20;53.70;;;;;;5004188;28;19949;-56
2022/05/07 11:55:08;;;;;;;;;;;21.20;53.70;;;;;;5003924;28;19914;-56
2022/05/07 11:57:35;;;;;;;;;;;21.20;53.70;;;;;;5004303;28;19920;-58
2022/05/07 12:00:17;;;;;;;;;;;21.20;53.70;;;;;;5003992;28;19918;-58
2022/05/07 12:02:49;;;;;;;;;;;21.20;53.70;;;;;;5005034;28;19920;-53
2022/05/07 12:05:14;;;;;;;;;;;21.20;53.80;;;;;;5003448;28;20016;-56
2022/05/07 12:07:40;;;;;;;;;;;21.30;53.80;;;;;;5003957;28;20025;-58
2022/05/07 12:10:06;;;;;;;;;;;21.30;54.00;;;;;;5003114;28;19913;-56
2022/05/07 12:12:31;;;;;;;;;;;21.30;53.80;;;;;;5004187;28;19913;-53
2022/05/07 12:14:56;;;;;;;;;;;21.30;53.80;;;;;;5003971;28;19929;-58
2022/05/07 12:20:06;;;;;;;;;;;21.30;54.00;;;;;;5007758;28;19968;-57
2022/05/07 12:30:55;;;;;;;;;;;21.30;53.80;;;;;;4943359;28;19914;-57
2022/05/07 12:33:20;;;;;;;;;;;21.30;53.80;;;;;;5007121;28;19913;-57
2022/05/07 12:35:46;;;;;;;;;;;21.30;53.70;;;;;;5006816;28;19968;-58
2022/05/07 12:38:11;;;;;;;;;;;21.30;53.80;;;;;;5006765;28;19913;-52
2022/05/07 12:40:37;;;;;;;;;;;21.30;53.80;;;;;;5004417;28;19920;-57
2022/05/07 12:43:02;;;;;;;;;;;21.30;53.80;;;;;;5006899;28;20467;-55
2022/05/07 12:45:28;;;;;;;;;;;21.30;53.90;;;;;;5006442;28;19925;-54
2022/05/07 12:47:53;;;;;;;;;;;21.30;53.80;;;;;;5007022;28;19913;-56
2022/05/07 12:50:19;;;;;;;;;;;21.30;53.90;;;;;;5005810;28;19914;-58
2022/05/07 12:52:44;;;;;;;;;;;21.30;53.90;;;;;;5006443;28;19917;-56
2022/05/07 12:55:10;;;;;;;;;;;21.30;53.90;;;;;;5004875;28;19924;-57
2022/05/07 12:57:35;;;;;;;;;;;21.30;53.90;;;;;;5006408;28;19949;-57
2022/05/07 13:00:00;;;;;;;;;;;21.30;53.90;;;;;;5006200;28;19913;-52
2022/05/07 13:02:26;;;;;;;;;;;21.30;53.90;;;;;;5006212;28;19928;-53
2022/05/07 13:04:51;;;;;;;;;;;21.30;54.00;;;;;;5006441;28;19914;-58
2022/05/07 13:07:17;;;;;;;;;;;21.30;53.90;;;;;;5006165;28;19917;-56
2022/05/07 13:09:42;;;;;;;;;;;21.30;53.90;;;;;;5005937;28;19913;-56
2022/05/07 13:12:10;;;;;;;;;;;21.30;53.80;;;;;;5006134;28;19917;-55
2022/05/07 13:14:36;;;;;;;;;;;21.30;53.90;;;;;;5004745;28;19913;-57
2022/05/07 13:17:02;;;;;;;;;;;21.30;53.80;;;;;;5005818;28;20436;-59
2022/05/07 13:19:27;;;;;;;;;;;21.40;53.80;;;;;;5006074;28;19917;-56
2022/05/07 13:21:54;;;;;;;;;;;21.30;53.80;;;;;;5006717;28;20024;-56
2022/05/07 13:24:19;;;;;;;;;;;21.40;53.80;;;;;;5006552;28;19918;-54
2022/05/07 13:26:45;;;;;;;;;;;21.40;53.80;;;;;;5006026;28;19992;-57
2022/05/07 13:29:11;;;;;;;;;;;21.40;53.80;;;;;;5005489;28;19922;-57
2022/05/07 13:31:37;;;;;;;;;;;21.40;53.80;;;;;;5006181;28;19913;-56
2022/05/07 13:34:04;;;;;;;;;;;21.40;53.80;;;;;;5005920;28;19953;-53
2022/05/07 13:36:30;;;;;;;;;;;21.40;53.80;;;;;;5005962;28;19914;-55
2022/05/07 13:38:55;;;;;;;;;;;21.50;53.90;;;;;;5005453;28;20024;-57
2022/05/07 13:41:21;;;;;;;;;;;21.40;53.80;;;;;;5005416;28;19913;-58
2022/05/07 13:43:47;;;;;;;;;;;21.40;53.80;;;;;;5003964;28;20573;-58
2022/05/07 13:46:12;;;;;;;;;;;21.40;53.80;;;;;;5003996;28;19924;-53
2022/05/07 13:48:38;;;;;;;;;;;21.50;53.80;;;;;;5005188;28;20302;-54
2022/05/07 13:51:06;;;;;;;;;;;21.50;53.90;;;;;;5005545;28;19917;-54
2022/05/07 13:53:32;;;;;;;;;;;21.50;53.80;;;;;;5005239;28;19914;-55
2022/05/07 13:55:57;;;;;;;;;;;21.50;53.90;;;;;;5005646;28;20064;-57
2022/05/07 13:58:23;;;;;;;;;;;21.50;53.80;;;;;;5005498;28;19917;-56
2022/05/07 14:00:48;;;;;;;;;;;21.50;54.00;;;;;;5005252;28;19917;-58
2022/05/07 14:03:14;;;;;;;;;;;21.50;53.90;;;;;;5005184;28;20008;-58
2022/05/07 14:05:40;;;;;;;;;;;21.50;53.80;;;;;;5005394;28;19925;-57
2022/05/07 14:08:05;;;;;;;;;;;21.50;53.90;;;;;;5005212;28;20326;-57
2022/05/07 14:10:31;;;;;;;;;;;21.50;53.90;;;;;;5004950;28;19964;-56
2022/05/07 14:12:56;;;;;;;;;;;21.50;53.90;;;;;;5005458;28;19917;-59
2022/05/07 14:15:22;;;;;;;;;;;21.50;53.90;;;;;;5005181;28;20411;-58
2022/05/07 14:17:47;;;;;;;;;;;21.50;53.90;;;;;;5004231;28;19992;-57
2022/05/07 14:20:13;;;;;;;;;;;21.50;53.90;;;;;;5004621;28;19913;-57
2022/05/07 14:22:39;;;;;;;;;;;21.50;53.90;;;;;;5004534;28;19928;-58
2022/05/07 14:25:05;;;;;;;;;;;21.50;53.90;;;;;;5004324;28;19914;-56
2022/05/07 14:27:36;;;;;;;;;;;21.50;53.90;;;;;;4998511;28;21355;-53
2022/05/07 14:30:02;;;;;;;;;;;21.50;53.90;;;;;;5003542;28;19980;-55
2022/05/07 14:32:28;;;;;;;;;;;21.50;53.90;;;;;;5004090;28;20299;-53
2022/05/07 14:34:53;;;;;;;;;;;21.50;53.90;;;;;;5005160;28;19913;-52
2022/05/07 14:37:19;;;;;;;;;;;21.50;54.00;;;;;;5004266;28;19968;-54
2022/05/07 14:39:44;;;;;;;;;;;21.50;53.90;;;;;;5003818;28;19922;-56
2022/05/07 14:42:10;;;;;;;;;;;21.50;54.00;;;;;;5002383;28;19917;-55
2022/05/07 14:44:37;;;;;;;;;;;21.50;53.90;;;;;;5004707;28;19992;-57
2022/05/07 14:47:03;;;;;;;;;;;21.60;54.00;;;;;;5003185;28;19922;-56
2022/05/07 14:49:28;;;;;;;;;;;21.50;54.00;;;;;;5004428;28;20067;-57
2022/05/07 14:51:53;;;;;;;;;;;21.50;54.00;;;;;;5004898;28;19948;-56
2022/05/07 14:54:19;;;;;;;;;;;21.50;54.00;;;;;;5004351;28;19919;-54
2022/05/07 14:56:45;;;;;;;;;;;21.50;53.90;;;;;;5004635;28;19920;-58